createdAt,value
2023-03-15T00:01:19.114Z,6.10
2023-03-15T00:03:48.863Z,6.10
2023-03-15T00:06:18.152Z,5.90
2023-03-15T00:08:47.625Z,5.70
2023-03-15T00:11:18.169Z,5.80
2023-03-15T00:13:47.539Z,5.80
2023-03-15T00:16:17.752Z,6.00
2023-03-15T00:18:47.708Z,6.40
2023-03-15T00:21:16.889Z,6.50
2023-03-15T00:23:45.729Z,6.70
2023-03-15T00:26:15.145Z,6.80
2023-03-15T00:28:48.780Z,6.80
2023-03-15T00:31:20.865Z,6.70
2023-03-15T00:33:53.727Z,6.70
2023-03-15T00:36:25.858Z,6.70
2023-03-15T00:38:57.500Z,6.60
2023-03-15T00:41:26.822Z,6.60
2023-03-15T00:43:57.010Z,6.50
2023-03-15T00:46:25.870Z,6.40
2023-03-15T00:48:54.783Z,6.30
2023-03-15T00:51:25.600Z,6.20
2023-03-15T00:53:55.180Z,6.20
2023-03-15T00:56:26.813Z,6.10
2023-03-15T00:58:57.199Z,6.10
2023-03-15T01:01:28.451Z,6.10
2023-03-15T01:03:57.394Z,6.10
2023-03-15T01:06:28.763Z,6.00
2023-03-15T01:08:57.784Z,5.80
2023-03-15T01:11:28.330Z,5.70
2023-03-15T01:14:01.016Z,5.60
2023-03-15T01:16:30.472Z,5.50
2023-03-15T01:18:59.338Z,5.40
2023-03-15T01:21:28.573Z,5.40
2023-03-15T01:23:57.479Z,5.40
2023-03-15T01:26:26.349Z,5.40
2023-03-15T01:28:55.893Z,5.20
2023-03-15T01:31:28.555Z,5.20
2023-03-15T01:33:57.427Z,5.10
2023-03-15T01:36:27.090Z,5.10
2023-03-15T01:38:55.993Z,5.10
2023-03-15T01:41:42.255Z,5.10
2023-03-15T01:44:14.882Z,5.20
2023-03-15T01:46:45.705Z,5.30
2023-03-15T01:49:22.909Z,5.50
2023-03-15T01:51:54.673Z,5.60
2023-03-15T01:54:29.694Z,5.70
2023-03-15T01:57:02.973Z,5.70
2023-03-15T01:59:35.718Z,5.60
2023-03-15T02:02:07.703Z,5.60
2023-03-15T02:04:39.721Z,5.60
2023-03-15T02:07:10.745Z,5.50
2023-03-15T02:09:47.189Z,5.40
2023-03-15T02:12:16.048Z,5.40
2023-03-15T02:14:46.423Z,5.50
2023-03-15T02:17:22.032Z,5.50
2023-03-15T02:19:58.492Z,5.60
2023-03-15T02:22:36.178Z,5.50
2023-03-15T02:25:11.961Z,5.50
2023-03-15T02:27:44.646Z,5.60
2023-03-15T02:30:13.272Z,5.60
2023-03-15T02:32:44.280Z,5.70
2023-03-15T02:35:13.226Z,5.70
2023-03-15T02:37:45.940Z,5.70
2023-03-15T02:40:18.890Z,5.80
2023-03-15T02:42:53.104Z,5.80
2023-03-15T02:45:22.943Z,5.90
2023-03-15T02:47:52.854Z,6.00
2023-03-15T02:50:21.644Z,6.10
2023-03-15T02:52:52.631Z,6.10
2023-03-15T02:55:21.787Z,6.00
2023-03-15T02:57:51.961Z,5.90
2023-03-15T03:00:22.176Z,5.80
2023-03-15T03:02:50.954Z,5.90
2023-03-15T03:05:20.301Z,6.00
2023-03-15T03:07:50.201Z,6.00
2023-03-15T03:10:21.080Z,6.00
2023-03-15T03:13:00.284Z,5.90
2023-03-15T03:15:34.342Z,5.90
2023-03-15T03:18:03.249Z,5.90
2023-03-15T03:20:32.020Z,6.00
2023-03-15T03:23:06.461Z,6.10
2023-03-15T03:25:36.835Z,6.10
2023-03-15T03:28:07.101Z,6.10
2023-03-15T03:30:37.283Z,6.10
2023-03-15T03:33:06.353Z,6.00
2023-03-15T03:35:35.265Z,5.90
2023-03-15T03:38:04.095Z,5.90
2023-03-15T03:40:38.593Z,6.00
2023-03-15T03:43:10.582Z,6.10
2023-03-15T03:45:39.368Z,6.00
2023-03-15T03:48:10.160Z,5.90
2023-03-15T03:50:38.897Z,5.90
2023-03-15T03:53:07.648Z,5.90
2023-03-15T03:55:38.945Z,5.90
2023-03-15T03:58:09.081Z,5.90
2023-03-15T04:00:57.984Z,5.90
2023-03-15T04:03:29.543Z,5.90
2023-03-15T04:06:08.262Z,5.80
2023-03-15T04:08:42.187Z,5.90
2023-03-15T04:11:17.776Z,5.80
2023-03-15T04:13:53.867Z,5.70
2023-03-15T04:16:24.749Z,5.70
2023-03-15T04:19:02.367Z,5.70
2023-03-15T04:21:34.947Z,5.80
2023-03-15T04:24:18.326Z,5.90
2023-03-15T04:27:05.613Z,6.00
2023-03-15T04:29:56.493Z,6.10
2023-03-15T04:32:27.641Z,6.10
2023-03-15T04:35:25.829Z,6.30
2023-03-15T04:38:27.090Z,6.30
2023-03-15T04:41:21.866Z,6.40
2023-03-15T04:44:27.516Z,6.60
2023-03-15T04:47:33.208Z,6.50
2023-03-15T04:50:25.880Z,6.40
2023-03-15T04:53:24.206Z,6.30
2023-03-15T04:56:11.830Z,6.30
2023-03-15T04:58:59.810Z,6.20
2023-03-15T05:12:39.477Z,5.90
2023-03-15T05:18:07.564Z,5.90
2023-03-15T05:20:44.253Z,6.00
2023-03-15T05:23:35.601Z,6.00
2023-03-15T05:26:11.637Z,5.90
2023-03-15T05:28:50.252Z,5.90
2023-03-15T05:31:37.351Z,5.90
2023-03-15T05:34:12.178Z,6.00
2023-03-15T05:37:01.396Z,6.00
2023-03-15T05:39:48.533Z,6.00
2023-03-15T05:42:36.000Z,6.10
2023-03-15T05:45:24.759Z,6.10
2023-03-15T05:48:24.869Z,6.10
2023-03-15T05:51:08.606Z,6.20
2023-03-15T05:53:48.505Z,6.20
2023-03-15T05:56:36.875Z,6.10
2023-03-15T05:59:31.901Z,6.00
2023-03-15T06:02:13.046Z,5.90
2023-03-15T06:05:00.350Z,5.90
2023-03-15T06:07:31.060Z,5.80
2023-03-15T06:10:00.421Z,5.90
2023-03-15T06:12:29.306Z,5.80
2023-03-15T06:14:58.176Z,5.80
2023-03-15T06:17:27.268Z,5.70
2023-03-15T06:19:55.996Z,5.80
2023-03-15T06:22:24.730Z,5.80
2023-03-15T06:25:03.566Z,5.80
2023-03-15T06:27:32.471Z,5.80
2023-03-15T06:30:01.590Z,5.80
2023-03-15T06:32:31.196Z,5.80
2023-03-15T06:35:00.223Z,5.80
2023-03-15T06:37:35.090Z,5.80
2023-03-15T06:40:08.828Z,5.90
2023-03-15T06:42:39.248Z,6.00
2023-03-15T06:45:10.882Z,6.00
2023-03-15T06:47:39.772Z,6.00
2023-03-15T06:50:09.902Z,5.90
2023-03-15T06:52:39.019Z,5.90
2023-03-15T06:55:10.327Z,5.90
2023-03-15T06:57:39.345Z,6.00
2023-03-15T07:00:11.470Z,6.00
2023-03-15T07:02:40.842Z,6.00
2023-03-15T07:05:11.051Z,6.10
2023-03-15T07:07:40.101Z,6.30
2023-03-15T07:10:13.741Z,6.30
2023-03-15T07:12:43.026Z,6.40
2023-03-15T07:15:16.660Z,6.40
2023-03-15T07:17:46.081Z,6.50
2023-03-15T07:20:15.338Z,6.50
2023-03-15T07:22:45.588Z,6.50
2023-03-15T07:25:15.845Z,6.60
2023-03-15T07:27:44.572Z,6.60
2023-03-15T07:30:14.532Z,6.50
2023-03-15T07:32:43.354Z,6.50
2023-03-15T07:35:13.567Z,6.60
2023-03-15T07:37:44.652Z,6.60
2023-03-15T07:40:16.332Z,6.70
2023-03-15T07:42:45.954Z,6.70
2023-03-15T07:45:15.553Z,6.60
2023-03-15T07:47:44.375Z,6.60
2023-03-15T07:50:16.450Z,6.70
2023-03-15T07:52:45.820Z,6.80
2023-03-15T07:55:16.067Z,6.90
2023-03-15T07:57:45.038Z,7.00
2023-03-15T08:00:14.957Z,7.00
2023-03-15T08:02:43.812Z,7.00
2023-03-15T08:05:12.548Z,7.00
2023-03-15T08:07:41.414Z,7.10
2023-03-15T08:10:11.252Z,7.30
2023-03-15T08:12:43.032Z,7.40
2023-03-15T08:15:12.810Z,7.40
2023-03-15T08:17:42.777Z,7.40
2023-03-15T08:20:14.971Z,7.40
2023-03-15T08:22:45.917Z,7.50
2023-03-15T08:25:16.516Z,7.50
2023-03-15T08:27:47.074Z,7.60
2023-03-15T08:30:17.381Z,7.60
2023-03-15T08:32:47.306Z,7.80
2023-03-15T08:35:18.031Z,7.90
2023-03-15T08:37:47.893Z,8.00
2023-03-15T08:40:19.322Z,8.00
2023-03-15T08:42:49.483Z,8.20
2023-03-15T08:45:18.492Z,8.20
2023-03-15T08:47:47.210Z,8.20
2023-03-15T08:50:17.724Z,8.30
2023-03-15T08:52:46.703Z,8.20
2023-03-15T08:55:15.487Z,8.20
2023-03-15T08:57:44.570Z,8.40
2023-03-15T09:00:18.523Z,8.60
2023-03-15T09:02:49.144Z,8.40
2023-03-15T09:05:18.847Z,8.30
2023-03-15T09:07:48.770Z,8.50
2023-03-15T09:10:18.746Z,8.70
2023-03-15T09:12:50.193Z,8.90
2023-03-15T09:15:21.684Z,9.00
2023-03-15T09:17:52.051Z,8.70
2023-03-15T09:20:23.104Z,8.90
2023-03-15T09:22:53.521Z,9.20
2023-03-15T09:25:23.954Z,9.70
2023-03-15T09:27:53.107Z,10.10
2023-03-15T09:30:23.532Z,10.40
2023-03-15T09:32:52.716Z,10.40
2023-03-15T09:35:22.416Z,10.00
2023-03-15T09:37:52.337Z,10.20
2023-03-15T09:40:23.800Z,9.90
2023-03-15T09:43:03.470Z,9.30
2023-03-15T09:45:48.803Z,9.10
2023-03-15T09:48:22.470Z,9.50
2023-03-15T09:50:54.637Z,9.50
2023-03-15T09:53:29.392Z,9.70
2023-03-15T09:55:59.818Z,9.60
2023-03-15T09:58:34.790Z,9.60
2023-03-15T10:01:09.563Z,9.60
2023-03-15T10:03:43.999Z,9.70
2023-03-15T10:06:17.602Z,9.30
2023-03-15T10:08:47.876Z,9.20
2023-03-15T10:11:24.621Z,9.00
2023-03-15T10:14:05.202Z,9.30
2023-03-15T10:16:41.882Z,9.30
2023-03-15T10:19:19.631Z,9.40
2023-03-15T10:21:56.852Z,9.40
2023-03-15T10:24:35.459Z,9.20
2023-03-15T10:27:22.225Z,8.90
2023-03-15T10:29:53.906Z,8.70
2023-03-15T10:32:29.746Z,8.70
2023-03-15T10:34:59.997Z,8.90
2023-03-15T10:37:28.963Z,8.90
2023-03-15T10:40:00.292Z,8.70
2023-03-15T10:42:31.335Z,8.80
2023-03-15T10:45:12.068Z,8.60
2023-03-15T10:47:50.442Z,8.70
2023-03-15T10:50:26.579Z,8.90
2023-03-15T10:52:57.700Z,9.00
2023-03-15T10:55:33.919Z,9.30
2023-03-15T10:58:19.866Z,9.40
2023-03-15T11:00:52.662Z,9.50
2023-03-15T11:03:26.043Z,9.60
2023-03-15T11:05:56.975Z,9.70
2023-03-15T11:08:37.303Z,9.90
2023-03-15T11:11:06.844Z,10.00
2023-03-15T11:13:37.009Z,10.00
2023-03-15T11:16:09.917Z,10.10
2023-03-15T11:18:50.236Z,10.10
2023-03-15T11:21:21.776Z,10.10
2023-03-15T11:23:52.151Z,10.20
2023-03-15T11:26:32.201Z,10.30
2023-03-15T11:29:05.231Z,10.40
2023-03-15T11:31:36.776Z,10.20
2023-03-15T11:34:10.061Z,10.30
2023-03-15T11:36:41.788Z,10.40
2023-03-15T11:39:14.238Z,10.50
2023-03-15T11:41:45.554Z,10.50
2023-03-15T11:44:23.065Z,10.50
2023-03-15T11:46:56.372Z,10.50
2023-03-15T11:49:34.363Z,10.50
2023-03-15T11:52:04.102Z,10.60
2023-03-15T11:54:33.689Z,10.60
2023-03-15T11:57:05.399Z,10.70
2023-03-15T11:59:37.073Z,10.90
2023-03-15T12:02:38.450Z,10.70
2023-03-15T12:05:18.049Z,10.70
2023-03-15T12:08:01.433Z,10.80
2023-03-15T12:10:43.989Z,11.00
2023-03-15T12:13:23.424Z,11.10
2023-03-15T12:15:53.276Z,11.00
2023-03-15T12:18:27.487Z,11.30
2023-03-15T12:21:22.173Z,11.60
2023-03-15T12:24:00.104Z,11.60
2023-03-15T12:26:41.569Z,11.70
2023-03-15T12:29:19.830Z,11.60
2023-03-15T12:31:55.370Z,11.70
2023-03-15T12:34:26.894Z,11.80
2023-03-15T12:37:01.053Z,11.70
2023-03-15T12:39:40.397Z,11.90
2023-03-15T12:42:15.017Z,12.20
2023-03-15T12:44:44.356Z,12.40
2023-03-15T12:47:13.818Z,12.50
2023-03-15T12:49:44.806Z,12.60
2023-03-15T12:52:40.754Z,12.60
2023-03-15T12:55:16.739Z,12.60
2023-03-15T12:57:51.448Z,12.60
2023-03-15T13:00:23.856Z,12.40
2023-03-15T13:02:57.243Z,12.50
2023-03-15T13:05:29.997Z,12.40
2023-03-15T13:08:08.969Z,12.50
2023-03-15T13:10:54.279Z,12.60
2023-03-15T13:13:37.194Z,12.80
2023-03-15T13:16:17.857Z,12.90
2023-03-15T13:18:57.756Z,12.90
2023-03-15T13:21:32.674Z,13.00
2023-03-15T13:24:03.516Z,13.10
2023-03-15T13:26:48.201Z,13.10
2023-03-15T13:29:21.189Z,13.10
2023-03-15T13:32:02.211Z,12.80
2023-03-15T13:34:33.119Z,12.80
2023-03-15T13:37:03.352Z,12.70
2023-03-15T13:39:35.042Z,12.90
2023-03-15T13:42:05.924Z,12.80
2023-03-15T13:44:35.056Z,13.00
2023-03-15T13:47:03.850Z,13.10
2023-03-15T13:49:33.921Z,13.30
2023-03-15T13:52:05.451Z,13.20
2023-03-15T13:54:35.941Z,13.40
2023-03-15T13:57:09.678Z,13.50
2023-03-15T13:59:45.469Z,13.30
2023-03-15T14:02:18.555Z,12.80
2023-03-15T14:04:53.720Z,12.60
2023-03-15T14:07:30.035Z,12.80
2023-03-15T14:10:25.832Z,12.40
2023-03-15T14:12:56.534Z,12.30
2023-03-15T14:15:27.633Z,12.30
2023-03-15T14:18:02.137Z,12.30
2023-03-15T14:20:41.842Z,12.30
2023-03-15T14:23:13.947Z,12.00
2023-03-15T14:25:44.526Z,12.00
2023-03-15T14:28:17.358Z,11.90
2023-03-15T14:30:53.564Z,12.10
2023-03-15T14:33:32.180Z,12.00
2023-03-15T14:36:02.786Z,12.10
2023-03-15T14:38:37.559Z,12.10
2023-03-15T14:41:23.472Z,12.20
2023-03-15T14:43:52.645Z,12.40
2023-03-15T14:46:21.637Z,12.40
2023-03-15T14:48:51.949Z,12.60
2023-03-15T14:51:23.164Z,12.60
2023-03-15T14:53:56.238Z,12.60
2023-03-15T14:56:27.081Z,12.60
2023-03-15T14:58:56.098Z,12.60
2023-03-15T15:01:28.405Z,12.70
2023-03-15T15:04:01.518Z,12.80
2023-03-15T15:06:32.953Z,12.70
2023-03-15T15:09:03.751Z,12.70
2023-03-15T15:11:34.467Z,12.50
2023-03-15T15:14:03.393Z,12.40
2023-03-15T15:16:32.305Z,12.40
2023-03-15T15:19:01.180Z,12.30
2023-03-15T15:21:34.034Z,12.40
2023-03-15T15:24:04.191Z,12.40
2023-03-15T15:26:35.144Z,12.50
2023-03-15T15:29:03.962Z,12.40
2023-03-15T15:31:34.935Z,12.50
2023-03-15T15:34:03.977Z,12.50
2023-03-15T15:36:35.644Z,12.50
2023-03-15T15:39:07.260Z,12.40
2023-03-15T15:41:37.723Z,12.20
2023-03-15T15:44:15.044Z,12.00
2023-03-15T15:46:43.981Z,12.00
2023-03-15T15:49:13.145Z,11.90
2023-03-15T15:51:45.885Z,11.80
2023-03-15T15:54:17.262Z,11.80
2023-03-15T15:56:51.629Z,11.70
2023-03-15T15:59:21.101Z,11.70
2023-03-15T16:01:59.962Z,11.80
2023-03-15T16:04:30.488Z,11.70
2023-03-15T16:07:01.625Z,11.70
2023-03-15T16:09:34.145Z,11.70
2023-03-15T16:12:10.537Z,11.90
2023-03-15T16:14:39.669Z,11.90
2023-03-15T16:17:12.591Z,11.90
2023-03-15T16:19:41.510Z,11.70
2023-03-15T16:22:10.888Z,11.50
2023-03-15T16:24:44.150Z,11.30
2023-03-15T16:27:16.820Z,11.10
2023-03-15T16:29:47.873Z,11.10
2023-03-15T16:32:29.788Z,11.20
2023-03-15T16:35:07.741Z,11.20
2023-03-15T16:37:36.580Z,11.20
2023-03-15T16:40:10.881Z,11.40
2023-03-15T16:42:41.091Z,11.40
2023-03-15T16:45:14.387Z,11.30
2023-03-15T16:47:43.492Z,11.40
2023-03-15T16:50:13.032Z,11.40
2023-03-15T16:52:43.225Z,11.30
2023-03-15T16:55:14.297Z,11.40
2023-03-15T16:57:44.892Z,11.40
2023-03-15T17:00:17.055Z,11.50
2023-03-15T17:02:47.756Z,11.50
2023-03-15T17:05:20.128Z,11.40
2023-03-15T17:07:51.134Z,11.40
2023-03-15T17:10:23.285Z,11.40
2023-03-15T17:12:54.420Z,11.40
2023-03-15T17:15:25.709Z,11.50
2023-03-15T17:17:57.969Z,11.40
2023-03-15T17:20:29.819Z,11.40
2023-03-15T17:23:04.476Z,11.30
2023-03-15T17:25:34.790Z,11.10
2023-03-15T17:28:05.621Z,11.00
2023-03-15T17:30:36.465Z,11.00
2023-03-15T17:33:06.509Z,11.10
2023-03-15T17:35:38.236Z,11.00
2023-03-15T17:38:13.767Z,11.00
2023-03-15T17:40:44.211Z,10.80
2023-03-15T17:43:17.403Z,10.70
2023-03-15T17:45:46.760Z,10.60
2023-03-15T17:48:15.495Z,10.70
2023-03-15T17:50:46.310Z,10.70
2023-03-15T17:53:18.469Z,10.70
2023-03-15T17:55:49.388Z,10.60
2023-03-15T17:58:22.363Z,10.50
2023-03-15T18:00:54.918Z,10.40
2023-03-15T18:03:25.455Z,10.40
2023-03-15T18:05:56.041Z,10.30
2023-03-15T18:08:26.043Z,10.40
2023-03-15T18:10:55.868Z,10.40
2023-03-15T18:13:28.017Z,10.50
2023-03-15T18:15:57.346Z,10.40
2023-03-15T18:18:27.618Z,10.50
2023-03-15T18:20:56.998Z,10.50
2023-03-15T18:23:26.658Z,10.40
2023-03-15T18:25:56.056Z,10.40
2023-03-15T18:28:27.367Z,10.40
2023-03-15T18:30:57.059Z,10.40
2023-03-15T18:33:26.640Z,10.40
2023-03-15T18:35:55.823Z,10.40
2023-03-15T18:38:24.788Z,10.30
2023-03-15T18:40:55.520Z,10.40
2023-03-15T18:43:26.288Z,10.40
2023-03-15T18:45:55.343Z,10.40
2023-03-15T18:48:39.657Z,10.30
2023-03-15T18:51:12.239Z,10.20
2023-03-15T18:53:42.887Z,10.20
2023-03-15T18:56:17.620Z,10.20
2023-03-15T18:58:48.653Z,10.20
2023-03-15T19:01:18.064Z,10.30
2023-03-15T19:03:47.225Z,10.40
2023-03-15T19:06:16.106Z,10.30
2023-03-15T19:08:45.014Z,10.30
2023-03-15T19:11:14.071Z,10.30
2023-03-15T19:13:43.527Z,10.30
2023-03-15T19:16:13.788Z,10.30
2023-03-15T19:18:43.782Z,10.20
2023-03-15T19:21:13.284Z,10.00
2023-03-15T19:23:42.314Z,10.00
2023-03-15T19:26:18.062Z,10.00
2023-03-15T19:28:47.421Z,10.00
2023-03-15T19:31:17.991Z,9.90
2023-03-15T19:33:46.955Z,9.80
2023-03-15T19:36:15.992Z,9.80
2023-03-15T19:38:44.812Z,9.70
2023-03-15T19:41:13.961Z,9.70
2023-03-15T19:43:43.821Z,9.70
2023-03-15T19:46:15.657Z,9.60
2023-03-15T19:48:45.904Z,9.70
2023-03-15T19:51:16.166Z,9.70
2023-03-15T19:53:45.006Z,9.60
2023-03-15T19:56:13.837Z,9.70
2023-03-15T19:58:42.543Z,9.70
2023-03-15T20:01:12.276Z,9.70
2023-03-15T20:03:41.746Z,9.70
2023-03-15T20:06:14.258Z,9.60
2023-03-15T20:08:44.017Z,9.50
2023-03-15T20:11:19.912Z,9.60
2023-03-15T20:13:49.174Z,9.50
2023-03-15T20:16:18.191Z,9.40
2023-03-15T20:18:48.124Z,9.30
2023-03-15T20:21:18.441Z,9.20
2023-03-15T20:23:47.988Z,9.20
2023-03-15T20:26:19.174Z,9.20
2023-03-15T20:28:48.168Z,9.20
2023-03-15T20:31:18.539Z,9.10
2023-03-15T20:33:51.789Z,9.10
2023-03-15T20:36:23.071Z,9.00
2023-03-15T20:38:52.011Z,8.90
2023-03-15T20:41:21.059Z,8.80
2023-03-15T20:43:49.947Z,8.70
2023-03-15T20:46:20.538Z,8.80
2023-03-15T20:48:49.566Z,8.70
2023-03-15T20:51:18.505Z,8.80
2023-03-15T20:53:48.792Z,8.70
2023-03-15T20:56:19.530Z,8.70
2023-03-15T20:58:49.321Z,8.70
2023-03-15T21:01:21.751Z,8.70
2023-03-15T21:03:53.209Z,8.80
2023-03-15T21:06:25.498Z,8.80
2023-03-15T21:08:56.442Z,8.80
2023-03-15T21:11:26.059Z,8.70
2023-03-15T21:13:56.117Z,8.70
2023-03-15T21:16:26.420Z,8.70
2023-03-15T21:18:56.469Z,8.70
2023-03-15T21:21:28.639Z,8.70
2023-03-15T21:24:02.406Z,8.60
2023-03-15T21:26:31.999Z,8.60
2023-03-15T21:29:01.560Z,8.50
2023-03-15T21:31:34.198Z,8.50
2023-03-15T21:34:03.789Z,8.60
2023-03-15T21:36:33.359Z,8.60
2023-03-15T21:39:07.879Z,8.60
2023-03-15T21:41:37.729Z,8.70
2023-03-15T21:44:09.294Z,8.60
2023-03-15T21:46:38.834Z,8.50
2023-03-15T21:49:08.356Z,8.50
2023-03-15T21:51:39.227Z,8.40
2023-03-15T21:54:09.416Z,8.50
2023-03-15T21:56:38.633Z,8.50
2023-03-15T21:59:07.587Z,8.40
2023-03-15T22:01:36.519Z,8.40
2023-03-15T22:04:05.430Z,8.40
2023-03-15T22:06:34.312Z,8.40
2023-03-15T22:09:03.603Z,8.40
2023-03-15T22:11:35.832Z,8.40
2023-03-15T22:14:04.625Z,8.40
2023-03-15T22:16:33.618Z,8.40
2023-03-15T22:19:03.392Z,8.40
2023-03-15T22:21:32.497Z,8.60
2023-03-15T22:24:01.438Z,8.60
2023-03-15T22:26:30.276Z,8.60
2023-03-15T22:29:00.392Z,8.60
2023-03-15T22:31:31.771Z,8.60
2023-03-15T22:34:02.971Z,8.50
2023-03-15T22:36:33.855Z,8.50
2023-03-15T22:39:03.546Z,8.60
2023-03-15T22:41:32.425Z,8.50
2023-03-15T22:44:02.610Z,8.50
2023-03-15T22:46:34.830Z,8.50
2023-03-15T22:49:04.972Z,8.40
2023-03-15T22:51:33.652Z,8.40
2023-03-15T22:54:02.977Z,8.40
2023-03-15T22:56:31.671Z,8.40
2023-03-15T22:59:00.536Z,8.40
2023-03-15T23:01:30.965Z,8.40
2023-03-15T23:03:59.829Z,8.60
2023-03-15T23:06:28.975Z,8.60
2023-03-15T23:08:57.836Z,8.60
2023-03-15T23:11:26.733Z,8.70
2023-03-15T23:13:55.528Z,8.60
2023-03-15T23:16:24.403Z,8.50
2023-03-15T23:18:54.980Z,8.60
2023-03-15T23:21:23.828Z,8.60
2023-03-15T23:23:52.881Z,8.60
2023-03-15T23:26:25.326Z,8.60
2023-03-15T23:28:54.398Z,8.50
2023-03-15T23:31:23.225Z,8.50
2023-03-15T23:33:54.565Z,8.60
2023-03-15T23:36:25.086Z,8.60
2023-03-15T23:38:54.453Z,8.50
2023-03-15T23:41:23.727Z,8.60
2023-03-15T23:43:52.999Z,8.50
2023-03-15T23:46:23.492Z,8.50
2023-03-15T23:48:53.424Z,8.40
2023-03-15T23:51:22.415Z,8.40
2023-03-15T23:53:52.627Z,8.50
2023-03-15T23:56:21.565Z,8.60
2023-03-15T23:58:50.337Z,8.60
